Flight Track Log - Related Links

Times and Time Zones

All times are in EDT time to prevent confusion due to time zone crossing. See the GJS3649 flight status page for this flight to view local times or setup timezone preferences in your user account.

Time Position Orientation Groundspeed Altitude Reporting Facility
EDT Latitude Longitude Course Direction KTS MPH feet Rate Location/Type
Mon 01:16:27 PM 42.0333 -87.9333 37° Northeast 214 246 2,500  Level Chicago TRACON
Mon 01:17:27 PM 42.0833 -87.8833 37° Northeast 239 275 4,600 1,403 Climbing Chicago TRACON
Mon 01:18:31 PM 42.1406 -87.8239 38° Northeast 254 292 5,400 1,619 Climbing Chicago Center
Mon 01:19:33 PM 42.1875 -87.7358 54° Northeast 295 339 8,000 2,419 Climbing Chicago Center
Mon 01:20:35 PM 42.1842 -87.6194 92° East 317 365 10,400 2,129 Climbing Chicago Center
Mon 01:21:37 PM 42.1656 -87.4672 99° East 343 395 12,400 1,935 Climbing Chicago Center
Mon 01:22:39 PM 42.1472 -87.3294 100° East 369 425 14,400 1,887 Climbing Chicago Center
Mon 01:23:41 PM 42.1283 -87.1864 100° East 386 444 16,300 1,776 Climbing Chicago Center
Mon 01:24:44 PM 42.1136 -87.0381 98° East 397 457 18,100 1,392 Climbing Chicago Center
Mon 01:25:46 PM 42.1189 -86.8908 87° East 398 458 19,200 1,210 Climbing Chicago Center
Mon 01:26:48 PM 42.1247 -86.7086 87° East 407 468 20,600 1,306 Climbing Chicago Center
Mon 01:27:50 PM 42.1306 -86.5561 87° East 419 482 21,900 1,210 Climbing Chicago Center
Mon 01:28:52 PM 42.1353 -86.3942 88° East 431 496 23,100 1,065 Climbing Chicago Center
Mon 01:29:54 PM 42.1411 -86.2286 87° East 440 506 24,100 1,113 Climbing Chicago Center
Mon 01:30:56 PM 42.1444 -86.0617 88° East 445 512 25,400 1,016 Climbing Chicago Center
Mon 01:31:58 PM 42.1422 -85.8736 91° East 450 518 26,200 532 Climbing Chicago Center
Mon 01:33:00 PM 42.1403 -85.6994 91° East 461 531 26,500 339 Climbing Chicago Center
Mon 01:34:02 PM 42.1392 -85.5256 90° East 466 536 26,900 532 Climbing Chicago Center
Mon 01:35:04 PM 42.1375 -85.3522 91° East 467 537 27,600 624 Climbing Chicago Center
Mon 01:36:07 PM 42.1356 -85.1436 91° East 469 540 28,200 528 Climbing Chicago Center
Mon 01:37:09 PM 42.1328 -84.9714 91° East 464 534 28,700 484 Climbing Chicago Center
Mon 01:38:11 PM 42.1381 -84.8011 88° East 456 525 29,200 484 Climbing Chicago Center
Mon 01:39:13 PM 42.1531 -84.6272 83° East 467 537 29,700 774 Climbing Chicago Center
Mon 01:40:15 PM 42.1686 -84.4508 83° East 476 548 30,800 871 Climbing Chicago Center
Mon 01:41:17 PM 42.1858 -84.2394 84° East 475 547 31,500 629 Climbing Chicago Center
Mon 01:42:19 PM 42.2003 -84.0608 84° East 481 554 32,100 581 Climbing Chicago Center
Mon 01:43:21 PM 42.2156 -83.8803 83° East 485 558 32,700 581 Climbing Chicago Center
Mon 01:44:23 PM 42.2292 -83.7006 84° East 484 557 33,300 622 Climbing Chicago Center
Mon 01:45:36 PM 42.2422 -83.4833 85° East 484 557 34,100 677 Climbing Cleveland Center
Mon 01:46:36 PM 42.2556 -83.2819 85° East 489 563 34,800 450 Climbing Cleveland Center
Mon 01:47:36 PM 42.2678 -83.1142 84° East 494 568 35,000 100 Climbing Cleveland Center
Mon 01:48:36 PM 42.2817 -82.9406 84° East 484 557 35,000  Level Cleveland Center
Mon 01:49:36 PM 42.2936 -82.7669 85° East 474 545 35,000  Level Cleveland Center
Mon 01:50:36 PM 42.3050 -82.5989 85° East 457 526 35,000  Level Cleveland Center
Mon 01:51:36 PM 42.3161 -82.4253 85° East 457 526 35,000  Level Cleveland Center
Mon 01:52:36 PM 42.3292 -82.2514 84° East 457 526 35,000  Level Cleveland Center
Mon 01:53:36 PM 42.3422 -82.0608 85° East 462 532 35,000  Level Cleveland Center
Mon 01:54:36 PM 42.3525 -81.9008 85° East 467 537 35,000  Level Cleveland Center
Mon 01:55:36 PM 42.3628 -81.7242 85° East 467 537 35,000  Level Cleveland Center
Mon 01:56:36 PM 42.3728 -81.5472 86° East 467 537 35,000  Level Cleveland Center
Mon 01:57:36 PM 42.3844 -81.3675 85° East 472 543 35,000  Level Cleveland Center
Mon 01:58:36 PM 42.3939 -81.1875 86° East 472 543 35,000  Level Cleveland Center
Mon 02:00:00 PM 42.3988 -80.9708 88° East  Level FlightAware Approximate
Mon 02:00:36 PM 42.4142 -80.8194 88° East 471 542 35,000  Level Cleveland Center
Mon 02:01:36 PM 42.4206 -80.6450 87° East 466 536 35,000  Level Cleveland Center
Mon 02:02:36 PM 42.4289 -80.4733 86° East 457 526 35,000  Level Cleveland Center
Mon 02:03:36 PM 42.4389 -80.2933 86° East 462 532 35,000  Level Cleveland Center
Mon 02:04:36 PM 42.4447 -80.1161 87° East 462 532 35,000  Level Cleveland Center
Mon 02:05:36 PM 42.4544 -79.9528 85° East 473 544 35,000  Level Cleveland Center
Mon 02:06:36 PM 42.4617 -79.7783 87° East 473 544 35,000  Level Cleveland Center
Mon 02:07:36 PM 42.4683 -79.5839 87° East 473 544 35,000  Level Cleveland Center
Mon 02:08:36 PM 42.4772 -79.4092 86° East 473 544 35,000  Level Cleveland Center
Mon 02:09:36 PM 42.4836 -79.2347 87° East 473 544 35,000  Level Cleveland Center
Mon 02:10:36 PM 42.4897 -79.0628 87° East 463 533 35,000  Level Cleveland Center
Mon 02:11:36 PM 42.4958 -78.8908 87° East 457 526 35,000  Level Cleveland Center
Mon 02:12:36 PM 42.5036 -78.7217 86° East 457 526 35,000  Level Cleveland Center
Mon 02:13:36 PM 42.5069 -78.5497 88° East 457 526 35,000  Level Cleveland Center
Mon 02:14:36 PM 42.5122 -78.3778 88° East 462 532 35,000  Level Cleveland Center
Mon 02:15:36 PM 42.5169 -78.2056 88° East 456 525 35,000  Level Cleveland Center
Mon 02:16:36 PM 42.5217 -78.0336 88° East 456 525 35,000  Level Cleveland Center
Mon 02:17:36 PM 42.5261 -77.8644 88° East 461 531 35,000 -50 Level Cleveland Center
Mon 02:18:36 PM 42.5325 -77.6950 87° East 456 525 34,900  Descending Cleveland Center
Mon 02:19:36 PM 42.5367 -77.5314 88° East 450 518 35,000 50 Climbing Cleveland Center
Mon 02:20:36 PM 42.5367 -77.3847 90° East 438 504 35,000  Level Cleveland Center
Mon 02:22:53 PM 42.5439 -77.0119 88° East 406 467 35,000  Level Boston Center
Mon 02:23:53 PM 42.5481 -76.8569 88° East 411 473 35,000  Level Boston Center
Mon 02:24:53 PM 42.5497 -76.6992 89° East 406 467 35,000 -100 Level Boston Center
Mon 02:25:53 PM 42.5517 -76.5386 89° East 406 467 34,800 -600 Descending Boston Center
Mon 02:26:53 PM 42.5553 -76.3781 88° East 418 481 33,800 -950 Descending Boston Center
Mon 02:27:53 PM 42.5581 -76.2317 88° East 423 487 32,900 -950 Descending Boston Center
Mon 02:28:53 PM 42.5569 -76.0708 90° East 423 487 31,900 -1,000 Descending Boston Center
Mon 02:29:53 PM 42.5597 -75.9158 89° East 418 481 30,900 -1,000 Descending Boston Center
Mon 02:30:53 PM 42.5397 -75.7514 99° East 424 488 29,900 -1,200 Descending Boston Center
Mon 02:31:53 PM 42.5153 -75.5808 101° East 439 505 28,500 -2,250 Descending Boston Center
Mon 02:32:53 PM 42.4925 -75.4192 101° East 444 511 25,400 -2,700 Descending Boston Center
Mon 02:33:53 PM 42.4697 -75.2606 101° East 437 503 23,100 -1,200 Descending Boston Center
Mon 02:34:53 PM 42.4692 -75.1000 90° East 415 478 23,000 -100 Descending Boston Center
Mon 02:35:53 PM 42.4725 -74.9567 88° East 389 448 22,900 -450 Descending Boston Center
Mon 02:36:53 PM 42.4756 -74.8131 88° East 384 442 22,100 -800 Descending Boston Center
Mon 02:37:53 PM 42.4786 -74.6669 88° East 384 442 21,300 -767 Descending Boston Center
Mon 02:39:00 PM 42.4668 -74.4956 87° East  Level FlightAware Approximate
Mon 02:39:53 PM 42.4836 -74.3994 87° East 378 435 19,800  Level Boston Center
Mon 02:40:53 PM 42.4842 -74.2419 90° East 372 428 18,900 -850 Descending Boston Center
Mon 02:41:53 PM 42.4858 -74.1181 89° East 372 428 18,100 -850 Descending Boston Center
Mon 02:42:53 PM 42.4861 -73.9661 90° East 361 415 17,200 -950 Descending Boston Center
Mon 02:43:53 PM 42.4897 -73.8422 88° East 366 421 16,200 -1,000 Descending Boston Center
Mon 02:44:53 PM 42.4914 -73.6931 89° East 361 415 15,200 -950 Descending Boston Center
Mon 02:45:53 PM 42.4928 -73.5719 89° East 361 415 14,300 -1,000 Descending Boston Center
Mon 02:46:53 PM 42.4836 -73.4311 95° East 356 410 13,200 -1,150 Descending Boston Center
Mon 02:47:53 PM 42.4639 -73.3014 102° East 349 402 12,000 -1,027 Descending Boston Center
Mon 02:48:44 PM 42.4478 -73.1997 102° East 345 397 11,300 -566 Descending Boston Center
Mon 02:49:39 PM 42.4319 -73.0869 101° East 340 391 11,000 -98 Descending Boston Center
Mon 02:50:46 PM 42.4139 -72.9519 100° East 317 365 11,100 -375 Climbing Boston Center
Mon 02:51:47 PM 42.3997 -72.8394 100° East 305 351 10,200 -496 Descending Boston Center
Mon 02:52:47 PM 42.3833 -72.7297 101° East 300 345 10,100 -567 Descending Boston Center
Mon 02:53:54 PM 42.3419 -72.6114 115° Southeast 307 353 9,000 -1,266 Descending Boston Center
Mon 02:54:55 PM 42.3275 -72.5019 100° East 295 339 7,400 -1,525 Descending Boston Center
Mon 02:55:56 PM 42.3044 -72.4036 108° East 286 329 5,900 -1,131 Descending Boston Center
Mon 02:56:57 PM 42.2378 -72.3867 169° South 250 288 5,100 -783 Descending Boston Center
Mon 02:57:51 PM 42.1858 -72.4178 204° Southwest 224 258 4,400 -783 Descending Boston Center
Mon 02:58:52 PM 42.1294 -72.4569 207° Southwest 228 262 3,600 -893 Descending Boston Center
Mon 02:59:52 PM 42.0794 -72.5017 214° Southwest 222 255 2,600 -545 Descending Boston Center
Mon 03:00:53 PM 42.0439 -72.5519 226° Southwest 179 206 2,500 -98 Descending Boston Center

Login

Don't have an account? Register now (free) for customized features, flight alerts, and more!